Time;durP1;ratioP1;P1;durP2;ratioP2;P2;SDS_P1;SDS_P2;PMS_P1;PMS_P2;Temp;Humidity;BMP_temperature;BMP_pressure;BME280_temperature;BME280_humidity;BME280_pressure;Samples;Min_cycle;Max_cycle;Signal;HPM_P1;HPM_P2
2023/10/09 00:01:01;;;;;;;5.50;2.25;;;;;;;;;;12854803;23;20028;-77
2023/10/09 00:06:04;;;;;;;2.47;1.77;;;;;;;;;;12870940;23;20047;-77
2023/10/09 00:11:17;;;;;;;7.63;2.45;;;;;;;;;;12870396;23;20029;-77
2023/10/09 00:16:34;;;;;;;4.28;2.67;;;;;;;;;;12869263;23;20024;-77
2023/10/09 00:21:38;;;;;;;3.13;1.73;;;;;;;;;;12867934;23;20025;-77
2023/10/09 00:26:47;;;;;;;3.90;2.05;;;;;;;;;;12854295;23;20099;-77
2023/10/09 00:32:04;;;;;;;4.82;1.85;;;;;;;;;;12853940;23;20375;-77
2023/10/09 00:37:10;;;;;;;4.47;2.10;;;;;;;;;;12827283;23;20487;-77
2023/10/09 00:42:25;;;;;;;3.53;2.10;;;;;;;;;;12826662;23;20079;-77
2023/10/09 00:47:34;;;;;;;3.47;2.17;;;;;;;;;;12863547;23;20471;-77
2023/10/09 00:52:43;;;;;;;3.95;2.22;;;;;;;;;;12831653;23;20024;-77
2023/10/09 00:57:56;;;;;;;3.40;1.90;;;;;;;;;;12830856;23;20044;-77
2023/10/09 01:03:18;;;;;;;4.00;2.25;;;;;;;;;;12830816;23;20115;-77
2023/10/09 01:13:52;;;;;;;3.75;2.15;;;;;;;;;;12855315;23;20095;-77
2023/10/09 01:18:57;;;;;;;;;;;;;;;;;;12831355;23;20031;-77
2023/10/09 01:24:08;;;;;;;3.67;1.70;;;;;;;;;;12860830;23;19920;-77
2023/10/09 01:29:16;;;;;;;3.22;2.03;;;;;;;;;;12860868;23;20028;-78
2023/10/09 01:34:23;;;;;;;4.20;2.42;;;;;;;;;;12860346;23;20059;-77
2023/10/09 01:39:28;;;;;;;3.65;2.22;;;;;;;;;;12833337;23;20039;-77
2023/10/09 01:44:34;;;;;;;4.85;2.22;;;;;;;;;;12839888;23;20028;-77
2023/10/09 01:49:41;;;;;;;3.33;1.88;;;;;;;;;;12831596;23;20077;-77
2023/10/09 01:54:48;;;;;;;4.40;2.20;;;;;;;;;;12858563;23;20067;-77
2023/10/09 01:59:53;;;;;;;4.40;2.42;;;;;;;;;;12857014;23;20403;-77
2023/10/09 02:05:10;;;;;;;3.47;2.15;;;;;;;;;;12856862;23;20025;-77
2023/10/09 02:10:31;;;;;;;4.85;2.17;;;;;;;;;;12856581;23;20098;-77
2023/10/09 02:15:51;;;;;;;6.03;1.90;;;;;;;;;;12830127;23;20027;-77
2023/10/09 02:21:12;;;;;;;3.38;1.83;;;;;;;;;;12828915;23;20404;-77
2023/10/09 02:26:19;;;;;;;4.07;2.17;;;;;;;;;;12854947;23;20028;-77
2023/10/09 02:31:23;;;;;;;3.35;1.70;;;;;;;;;;12869090;23;20040;-77
2023/10/09 02:36:28;;;;;;;4.00;2.30;;;;;;;;;;12870137;23;20036;-77
2023/10/09 02:41:34;;;;;;;4.50;2.33;;;;;;;;;;12855695;23;20028;-77
2023/10/09 02:46:40;;;;;;;2.92;1.75;;;;;;;;;;12829561;23;20040;-77
2023/10/09 02:51:48;;;;;;;2.97;2.03;;;;;;;;;;12869383;23;20087;-77
2023/10/09 02:56:56;;;;;;;5.10;1.88;;;;;;;;;;12869039;23;20104;-77
2023/10/09 03:02:00;;;;;;;4.13;1.90;;;;;;;;;;12867738;23;20033;-77
2023/10/09 03:07:04;;;;;;;4.47;2.22;;;;;;;;;;12867753;23;20410;-77
2023/10/09 03:12:12;;;;;;;3.72;1.88;;;;;;;;;;12828058;23;20055;-77
2023/10/09 03:17:15;;;;;;;3.05;1.80;;;;;;;;;;12866277;23;20021;-77
2023/10/09 03:22:18;;;;;;;3.33;1.67;;;;;;;;;;12865149;23;20498;-77
2023/10/09 03:27:23;;;;;;;2.80;2.00;;;;;;;;;;12866321;23;20035;-78
2023/10/09 03:32:26;;;;;;;2.72;1.83;;;;;;;;;;12874065;23;20025;-78
2023/10/09 03:37:34;;;;;;;3.75;1.67;;;;;;;;;;12865097;23;20032;-77
2023/10/09 03:42:42;;;;;;;3.92;1.50;;;;;;;;;;12853987;23;20031;-77
2023/10/09 03:47:48;;;;;;;3.45;1.95;;;;;;;;;;12855118;23;20028;-77
2023/10/09 03:52:51;;;;;;;2.78;1.95;;;;;;;;;;12863558;23;20025;-77
2023/10/09 03:57:59;;;;;;;3.05;1.85;;;;;;;;;;12854602;23;20411;-77
2023/10/09 04:03:05;;;;;;;3.45;1.80;;;;;;;;;;12827753;23;20029;-77
2023/10/09 04:08:12;;;;;;;;;;;;;;;;;;12828986;23;20025;-77
2023/10/09 04:13:22;;;;;;;2.15;1.30;;;;;;;;;;12854453;23;20336;-77
2023/10/09 04:18:32;;;;;;;2.58;1.48;;;;;;;;;;12860203;23;20506;-76
2023/10/09 04:23:59;;;;;;;3.88;1.80;;;;;;;;;;12859508;23;20039;-77
2023/10/09 04:29:02;;;;;;;2.72;1.85;;;;;;;;;;12858194;23;20024;-77
2023/10/09 04:34:23;;;;;;;4.30;1.75;;;;;;;;;;12858211;23;20048;-77
2023/10/09 04:39:37;;;;;;;1.98;1.42;;;;;;;;;;12826623;23;20096;-77
2023/10/09 04:44:59;;;;;;;4.00;1.83;;;;;;;;;;12855110;23;20249;-77
2023/10/09 04:50:11;;;;;;;2.40;1.77;;;;;;;;;;12827174;23;20395;-78
2023/10/09 04:55:18;;;;;;;2.50;1.73;;;;;;;;;;12827012;23;20071;-78
2023/10/09 05:00:46;;;;;;;5.93;1.90;;;;;;;;;;12826882;23;20024;-77
2023/10/09 05:05:58;;;;;;;5.40;2.28;;;;;;;;;;12826632;23;20479;-77
2023/10/09 05:11:15;;;;;;;3.47;1.85;;;;;;;;;;12853859;23;20399;-77
2023/10/09 05:16:25;;;;;;;3.50;2.00;;;;;;;;;;12868840;23;20487;-78
2023/10/09 05:21:44;;;;;;;2.95;2.00;;;;;;;;;;12872246;23;20063;-78
2023/10/09 05:27:12;;;;;;;2.90;1.95;;;;;;;;;;12862818;23;20021;-78
2023/10/09 05:32:27;;;;;;;3.15;1.80;;;;;;;;;;12866893;23;20465;-77
2023/10/09 05:37:33;;;;;;;2.55;1.90;;;;;;;;;;12867113;23;20075;-78
2023/10/09 05:42:44;;;;;;;2.38;1.85;;;;;;;;;;12867125;23;20075;-77
2023/10/09 05:47:53;;;;;;;3.78;1.80;;;;;;;;;;12857485;23;20021;-77
2023/10/09 05:53:09;;;;;;;3.53;1.75;;;;;;;;;;12857975;23;20044;-77
2023/10/09 06:03:53;;;;;;;2.78;1.90;;;;;;;;;;12857354;23;20047;-77
2023/10/09 06:14:14;;;;;;;3.72;1.92;;;;;;;;;;12854237;23;20031;-78
2023/10/09 06:19:27;;;;;;;3.78;1.92;;;;;;;;;;12859034;23;20832;-78
2023/10/09 06:24:41;;;;;;;3.60;2.30;;;;;;;;;;12829657;23;20037;-77
2023/10/09 06:30:13;;;;;;;5.15;2.80;;;;;;;;;;12829090;23;20188;-77
2023/10/09 06:35:21;;;;;;;4.50;2.55;;;;;;;;;;12794935;23;20195;-77
2023/10/09 06:45:54;;;;;;;3.78;2.08;;;;;;;;;;12800051;23;20522;-78
2023/10/09 06:51:07;;;;;;;3.65;2.17;;;;;;;;;;12872869;23;20020;-78
2023/10/09 06:56:22;;;;;;;5.75;1.92;;;;;;;;;;12856293;23;20034;-78
2023/10/09 07:01:28;;;;;;;3.97;2.10;;;;;;;;;;12869876;23;20413;-77
2023/10/09 07:11:59;;;;;;;7.43;2.95;;;;;;;;;;12876135;23;20068;-78
2023/10/09 07:17:04;;;;;;;6.15;3.53;;;;;;;;;;12872331;23;20020;-78
2023/10/09 07:22:16;;;;;;;4.70;3.10;;;;;;;;;;12856709;23;20033;-77
2023/10/09 07:27:43;;;;;;;5.97;3.00;;;;;;;;;;12855773;23;20096;-78
2023/10/09 07:32:47;;;;;;;5.40;2.80;;;;;;;;;;12864482;23;20063;-78
2023/10/09 07:37:52;;;;;;;5.90;2.95;;;;;;;;;;12863329;23;20048;-77
2023/10/09 07:43:04;;;;;;;4.68;2.30;;;;;;;;;;12855105;23;20020;-78
2023/10/09 07:48:14;;;;;;;4.15;2.03;;;;;;;;;;12855359;23;20021;-77
2023/10/09 07:53:25;;;;;;;4.13;2.38;;;;;;;;;;12828278;23;20033;-78
2023/10/09 07:58:30;;;;;;;3.88;2.08;;;;;;;;;;12854583;23;20024;-78
2023/10/09 08:03:35;;;;;;;4.63;2.13;;;;;;;;;;12859815;23;20525;-78
2023/10/09 08:09:16;;;;;;;2.67;2.03;;;;;;;;;;12854381;23;20035;-78
2023/10/09 08:14:20;;;;;;;2.13;1.67;;;;;;;;;;12858053;23;20036;-77
2023/10/09 08:19:33;;;;;;;3.47;1.73;;;;;;;;;;12826957;23;20044;-78
2023/10/09 08:24:41;;;;;;;2.38;1.77;;;;;;;;;;12856412;23;20027;-77
2023/10/09 08:29:47;;;;;;;4.63;2.08;;;;;;;;;;12854955;23;20052;-77
2023/10/09 08:34:53;;;;;;;4.43;2.10;;;;;;;;;;12854322;23;20016;-78
2023/10/09 08:40:04;;;;;;;4.65;1.83;;;;;;;;;;12826695;23;20024;-77
2023/10/09 08:45:10;;;;;;;2.97;1.80;;;;;;;;;;12873619;23;20073;-78
2023/10/09 08:50:14;;;;;;;3.78;2.00;;;;;;;;;;12854495;23;20032;-77
2023/10/09 08:55:19;;;;;;;3.38;2.00;;;;;;;;;;12872692;23;20027;-78
2023/10/09 09:00:23;;;;;;;3.30;2.08;;;;;;;;;;12842929;23;20020;-78
2023/10/09 09:05:28;;;;;;;2.92;1.98;;;;;;;;;;12837083;23;20497;-78
2023/10/09 09:10:36;;;;;;;4.15;2.17;;;;;;;;;;12875613;23;20020;-77
2023/10/09 09:15:40;;;;;;;3.63;1.98;;;;;;;;;;12877023;23;20036;-77
2023/10/09 09:20:45;;;;;;;3.60;1.90;;;;;;;;;;12875913;23;20419;-77
2023/10/09 09:25:58;;;;;;;4.60;2.40;;;;;;;;;;12858485;23;20498;-77
2023/10/09 09:31:13;;;;;;;2.85;1.77;;;;;;;;;;12857900;23;20095;-77
2023/10/09 09:36:17;;;;;;;3.33;1.93;;;;;;;;;;12831795;23;20021;-77
2023/10/09 09:41:24;;;;;;;4.45;2.00;;;;;;;;;;12872862;23;20130;-77
2023/10/09 09:46:33;;;;;;;3.42;2.22;;;;;;;;;;12872349;23;20562;-77
2023/10/09 09:51:36;;;;;;;3.70;2.00;;;;;;;;;;12830977;23;20029;-77
2023/10/09 09:56:44;;;;;;;3.92;2.40;;;;;;;;;;12870773;23;20373;-77
2023/10/09 10:01:56;;;;;;;3.35;2.20;;;;;;;;;;12870429;23;20025;-77
2023/10/09 10:07:04;;;;;;;3.92;1.75;;;;;;;;;;12857185;23;20021;-77
2023/10/09 10:12:14;;;;;;;3.53;2.42;;;;;;;;;;12868831;23;20100;-77
2023/10/09 10:17:17;;;;;;;4.75;1.98;;;;;;;;;;12868100;23;20515;-77
2023/10/09 10:22:27;;;;;;;3.47;2.05;;;;;;;;;;12867208;23;20063;-77
2023/10/09 10:27:44;;;;;;;3.10;1.63;;;;;;;;;;12866942;23;20082;-77
2023/10/09 10:32:58;;;;;;;5.43;1.75;;;;;;;;;;12865769;23;20092;-77
2023/10/09 10:38:11;;;;;;;2.33;1.52;;;;;;;;;;12865140;23;20032;-77
2023/10/09 10:43:32;;;;;;;2.72;1.65;;;;;;;;;;12863568;23;20095;-77
2023/10/09 10:48:38;;;;;;;3.75;2.25;;;;;;;;;;12863530;23;20024;-77
2023/10/09 10:53:52;;;;;;;4.35;2.42;;;;;;;;;;12873483;23;20020;-77
2023/10/09 11:04:38;;;;;;;5.03;2.10;;;;;;;;;;10532301;27;20407;-78
2023/10/09 11:10:08;;;;;;;2.63;1.60;;;;;;;;;;10528639;28;20105;-78
2023/10/09 11:15:29;;;;;;;4.97;2.85;;;;;;;;;;10485839;28;20110;-78
2023/10/09 11:20:36;;;;;;;6.32;2.95;;;;;;;;;;10485542;28;20075;-78
2023/10/09 11:25:49;;;;;;;3.28;2.10;;;;;;;;;;10485153;28;20091;-79
2023/10/09 11:30:55;;;;;;;4.18;2.70;;;;;;;;;;10486594;28;20053;-79
2023/10/09 11:36:00;;;;;;;3.77;1.87;;;;;;;;;;10500869;28;20045;-78
2023/10/09 11:41:18;;;;;;;3.93;2.13;;;;;;;;;;10500729;28;20064;-78
2023/10/09 11:46:38;;;;;;;3.33;1.55;;;;;;;;;;10485126;28;20062;-78
2023/10/09 11:52:04;;;;;;;2.58;1.55;;;;;;;;;;10484378;28;20049;-78
2023/10/09 11:57:07;;;;;;;;;;;;;;;;;;10478782;28;20052;-78
2023/10/09 12:02:12;;;;;;;1.77;1.10;;;;;;;;;;10485788;28;20015;-78
2023/10/09 12:07:20;;;;;;;3.42;1.90;;;;;;;;;;10483323;28;20498;-78
2023/10/09 12:12:26;;;;;;;4.75;2.80;;;;;;;;;;10474487;28;20661;-78
2023/10/09 12:17:29;;;;;;;4.53;2.72;;;;;;;;;;10456255;28;20059;-78
2023/10/09 12:22:34;;;;;;;4.63;2.92;;;;;;;;;;10455812;28;20037;-78
2023/10/09 12:27:37;;;;;;;5.38;2.53;;;;;;;;;;10453712;28;20051;-78
2023/10/09 12:32:40;;;;;;;4.80;2.45;;;;;;;;;;10455112;28;20045;-78
2023/10/09 12:37:46;;;;;;;4.35;2.65;;;;;;;;;;10455470;28;20069;-78
2023/10/09 12:42:49;;;;;;;3.45;2.08;;;;;;;;;;10459922;28;20429;-78
2023/10/09 12:47:53;;;;;;;4.68;2.72;;;;;;;;;;10470451;28;20121;-78
2023/10/09 12:53:01;;;;;;;5.22;3.20;;;;;;;;;;10458696;28;20072;-78
2023/10/09 12:58:06;;;;;;;6.35;3.53;;;;;;;;;;10455394;28;20716;-78
2023/10/09 13:03:17;;;;;;;4.53;2.90;;;;;;;;;;10455616;28;20040;-78
2023/10/09 13:08:23;;;;;;;6.22;3.38;;;;;;;;;;10452737;28;20045;-78
2023/10/09 13:13:39;;;;;;;4.35;2.60;;;;;;;;;;10455803;28;20115;-78
2023/10/09 13:18:49;;;;;;;5.05;2.47;;;;;;;;;;10457504;28;20052;-78
2023/10/09 13:23:54;;;;;;;4.93;2.58;;;;;;;;;;10472781;28;20049;-78
2023/10/09 13:28:59;;;;;;;4.55;2.50;;;;;;;;;;10476194;28;20401;-78
2023/10/09 13:34:06;;;;;;;4.63;3.33;;;;;;;;;;10513190;28;20043;-79
2023/10/09 13:44:28;;;;;;;3.78;2.40;;;;;;;;;;10529204;28;20618;-78
2023/10/09 13:49:32;;;;;;;6.22;2.83;;;;;;;;;;10552742;28;20036;-78
2023/10/09 13:54:42;;;;;;;5.05;2.85;;;;;;;;;;10577779;28;20297;-78
2023/10/09 13:59:49;;;;;;;3.60;1.80;;;;;;;;;;10577376;28;20454;-78
2023/10/09 14:04:54;;;;;;;3.65;2.05;;;;;;;;;;10577285;28;20052;-78
2023/10/09 14:10:07;;;;;;;5.47;2.90;;;;;;;;;;10577385;28;20062;-78
2023/10/09 14:15:17;;;;;;;5.43;2.60;;;;;;;;;;10564733;28;20048;-78
2023/10/09 14:25:41;;;;;;;3.97;2.78;;;;;;;;;;10576819;28;20074;-78
2023/10/09 14:30:48;;;;;;;4.50;2.92;;;;;;;;;;10578591;28;20047;-78
2023/10/09 14:35:53;;;;;;;3.85;2.55;;;;;;;;;;10590797;28;20474;-78
2023/10/09 14:41:00;;;;;;;4.60;2.03;;;;;;;;;;10588653;28;20055;-78
2023/10/09 14:46:10;;;;;;;3.03;1.75;;;;;;;;;;10577837;28;20039;-78
2023/10/09 14:51:13;;;;;;;2.33;1.52;;;;;;;;;;10571703;28;20130;-78
2023/10/09 14:56:28;;;;;;;3.35;1.85;;;;;;;;;;10576127;28;20055;-78
2023/10/09 15:01:32;;;;;;;2.37;1.70;;;;;;;;;;10575657;28;20050;-78
2023/10/09 15:06:38;;;;;;;2.10;1.17;;;;;;;;;;10570813;28;20052;-78
2023/10/09 15:11:42;;;;;;;;;;;;;;;;;;10576048;28;20046;-78
2023/10/09 15:16:46;;;;;;;2.65;1.42;;;;;;;;;;10574487;28;19934;-78
2023/10/09 15:21:50;;;;;;;3.45;1.25;;;;;;;;;;10564430;28;20399;-78
2023/10/09 15:26:57;;;;;;;2.95;1.40;;;;;;;;;;10574559;28;20040;-78
2023/10/09 15:32:04;;;;;;;4.50;1.60;;;;;;;;;;10565626;28;20028;-78
2023/10/09 15:37:08;;;;;;;4.20;1.60;;;;;;;;;;10575418;28;20047;-78
2023/10/09 15:42:13;;;;;;;2.20;1.30;;;;;;;;;;10574904;28;20048;-78
2023/10/09 15:47:16;;;;;;;2.43;1.50;;;;;;;;;;10575360;28;20560;-78
2023/10/09 15:52:20;;;;;;;2.47;1.65;;;;;;;;;;10580199;28;20381;-78
2023/10/09 15:57:25;;;;;;;2.85;1.50;;;;;;;;;;10582693;28;20054;-78
2023/10/09 16:02:28;;;;;;;4.28;1.50;;;;;;;;;;10580962;28;20040;-78
2023/10/09 16:07:31;;;;;;;2.65;1.80;;;;;;;;;;10582564;27;20066;-78
2023/10/09 16:12:36;;;;;;;2.63;1.63;;;;;;;;;;10582859;28;20035;-78
2023/10/09 16:17:39;;;;;;;1.83;1.45;;;;;;;;;;10582410;28;20459;-78
2023/10/09 16:22:45;;;;;;;2.63;1.70;;;;;;;;;;10582175;27;20064;-78
2023/10/09 16:27:50;;;;;;;;;;;;;;;;;;10585587;28;20070;-78
2023/10/09 16:32:53;;;;;;;5.13;1.27;;;;;;;;;;10593544;28;20598;-78
2023/10/09 16:37:57;;;;;;;2.70;1.50;;;;;;;;;;10584112;28;20055;-78
2023/10/09 16:43:02;;;;;;;2.63;1.80;;;;;;;;;;10582389;28;20489;-78
2023/10/09 16:48:07;;;;;;;3.10;1.83;;;;;;;;;;10581716;28;20036;-78
2023/10/09 16:53:11;;;;;;;3.28;1.77;;;;;;;;;;10586553;27;20051;-78
2023/10/09 16:58:16;;;;;;;5.93;1.85;;;;;;;;;;10579769;28;20063;-78
2023/10/09 17:03:20;;;;;;;3.20;1.92;;;;;;;;;;10580271;28;20036;-78
2023/10/09 17:08:29;;;;;;;4.45;2.30;;;;;;;;;;10579954;28;20063;-78
2023/10/09 17:13:33;;;;;;;3.85;2.08;;;;;;;;;;10579800;28;20127;-78
2023/10/09 17:18:37;;;;;;;4.03;1.83;;;;;;;;;;10579220;28;20047;-78
2023/10/09 17:23:41;;;;;;;4.47;2.20;;;;;;;;;;10579660;28;20500;-78
2023/10/09 17:28:46;;;;;;;3.80;2.30;;;;;;;;;;10579864;28;20040;-78
2023/10/09 17:33:50;;;;;;;4.07;2.40;;;;;;;;;;10579086;28;20042;-78
2023/10/09 17:38:53;;;;;;;3.63;2.10;;;;;;;;;;10578956;28;20239;-78
2023/10/09 17:43:59;;;;;;;3.42;2.33;;;;;;;;;;10578928;28;20044;-78
2023/10/09 17:49:02;;;;;;;3.13;2.17;;;;;;;;;;10578511;28;20522;-78
2023/10/09 17:54:06;;;;;;;4.22;2.45;;;;;;;;;;10578134;28;20040;-78
2023/10/09 17:59:11;;;;;;;5.40;3.08;;;;;;;;;;10577959;28;20043;-78
2023/10/09 18:04:14;;;;;;;6.22;2.70;;;;;;;;;;10577949;28;20591;-78
2023/10/09 18:09:18;;;;;;;3.92;2.53;;;;;;;;;;10576793;28;20043;-78
2023/10/09 18:14:23;;;;;;;4.75;2.38;;;;;;;;;;10577430;28;20134;-78
2023/10/09 18:19:28;;;;;;;4.00;2.15;;;;;;;;;;10597299;28;20071;-78
2023/10/09 18:24:36;;;;;;;4.57;2.97;;;;;;;;;;10592611;27;20082;-78
2023/10/09 18:29:41;;;;;;;4.82;3.13;;;;;;;;;;10583405;28;20069;-78
2023/10/09 18:34:44;;;;;;;6.93;3.17;;;;;;;;;;10575145;28;20436;-78
2023/10/09 18:39:48;;;;;;;5.88;3.53;;;;;;;;;;10576716;28;20127;-77
2023/10/09 18:44:52;;;;;;;6.05;3.78;;;;;;;;;;10576601;28;20048;-78
2023/10/09 18:49:56;;;;;;;5.55;3.55;;;;;;;;;;10575976;28;20405;-78
2023/10/09 18:54:59;;;;;;;7.53;4.35;;;;;;;;;;10576418;28;20686;-78
2023/10/09 19:00:06;;;;;;;6.10;3.75;;;;;;;;;;10576082;28;20035;-78
2023/10/09 19:05:10;;;;;;;6.53;3.70;;;;;;;;;;10576450;28;20127;-78
2023/10/09 19:10:15;;;;;;;5.28;3.65;;;;;;;;;;10575581;28;20054;-78
2023/10/09 19:15:21;;;;;;;5.15;3.38;;;;;;;;;;10576108;28;20043;-78
2023/10/09 19:20:25;;;;;;;5.10;3.40;;;;;;;;;;10575157;28;20113;-78
2023/10/09 19:25:32;;;;;;;6.10;3.65;;;;;;;;;;10582953;28;20131;-78
2023/10/09 19:30:38;;;;;;;7.15;3.72;;;;;;;;;;10583976;28;20055;-78
2023/10/09 19:35:42;;;;;;;8.25;4.28;;;;;;;;;;10581419;28;20054;-78
2023/10/09 22:43:23;;;;;;;5.97;2.53;;;;;;;;;;10204009;28;20090;-76
2023/10/09 23:57:41;;;;;;;;;;;;;;;;;;;;;
